sensor_id;sensor_type;location;lat;lon;timestamp;temperature;humidity
68109;SHT30;54893;49.864;19.084;2023-04-25T00:02:26;9.60;96.81
68109;SHT30;54893;49.864;19.084;2023-04-25T00:07:26;9.57;96.94
68109;SHT30;54893;49.864;19.084;2023-04-25T00:12:26;9.54;96.98
68109;SHT30;54893;49.864;19.084;2023-04-25T00:17:28;9.51;97.06
68109;SHT30;54893;49.864;19.084;2023-04-25T00:22:29;9.52;96.90
68109;SHT30;54893;49.864;19.084;2023-04-25T00:27:29;9.52;96.93
68109;SHT30;54893;49.864;19.084;2023-04-25T00:32:30;9.48;97.27
68109;SHT30;54893;49.864;19.084;2023-04-25T00:37:30;9.46;97.36
68109;SHT30;54893;49.864;19.084;2023-04-25T00:42:31;9.48;97.53
68109;SHT30;54893;49.864;19.084;2023-04-25T00:47:32;9.41;97.34
68109;SHT30;54893;49.864;19.084;2023-04-25T00:52:33;9.46;97.46
68109;SHT30;54893;49.864;19.084;2023-04-25T00:57:34;9.41;97.25
68109;SHT30;54893;49.864;19.084;2023-04-25T01:02:35;9.44;97.49
68109;SHT30;54893;49.864;19.084;2023-04-25T01:07:36;9.37;97.44
68109;SHT30;54893;49.864;19.084;2023-04-25T01:12:36;9.44;97.40
68109;SHT30;54893;49.864;19.084;2023-04-25T01:17:37;9.37;97.45
68109;SHT30;54893;49.864;19.084;2023-04-25T01:22:37;9.65;96.11
68109;SHT30;54893;49.864;19.084;2023-04-25T01:27:38;9.67;95.05
68109;SHT30;54893;49.864;19.084;2023-04-25T01:32:39;9.50;95.36
68109;SHT30;54893;49.864;19.084;2023-04-25T01:37:41;9.44;95.78
68109;SHT30;54893;49.864;19.084;2023-04-25T01:42:43;9.26;96.37
68109;SHT30;54893;49.864;19.084;2023-04-25T01:47:44;9.27;96.15
68109;SHT30;54893;49.864;19.084;2023-04-25T01:52:49;9.24;96.04
68109;SHT30;54893;49.864;19.084;2023-04-25T01:57:49;9.27;95.73
68109;SHT30;54893;49.864;19.084;2023-04-25T02:02:49;9.06;96.42
68109;SHT30;54893;49.864;19.084;2023-04-25T02:07:50;9.10;96.40
68109;SHT30;54893;49.864;19.084;2023-04-25T02:12:51;9.43;94.31
68109;SHT30;54893;49.864;19.084;2023-04-25T02:17:51;9.23;94.65
68109;SHT30;54893;49.864;19.084;2023-04-25T02:22:54;9.16;95.14
68109;SHT30;54893;49.864;19.084;2023-04-25T02:27:54;9.19;93.48
68109;SHT30;54893;49.864;19.084;2023-04-25T02:32:55;8.94;93.34
68109;SHT30;54893;49.864;19.084;2023-04-25T02:37:56;8.87;93.55
68109;SHT30;54893;49.864;19.084;2023-04-25T02:42:56;8.70;93.89
68109;SHT30;54893;49.864;19.084;2023-04-25T02:47:57;8.72;92.20
68109;SHT30;54893;49.864;19.084;2023-04-25T02:52:57;8.41;93.49
68109;SHT30;54893;49.864;19.084;2023-04-25T02:57:57;8.42;93.85
68109;SHT30;54893;49.864;19.084;2023-04-25T03:02:58;8.22;94.12
68109;SHT30;54893;49.864;19.084;2023-04-25T03:07:58;8.22;93.79
68109;SHT30;54893;49.864;19.084;2023-04-25T03:12:58;8.18;93.53
68109;SHT30;54893;49.864;19.084;2023-04-25T03:17:59;8.05;94.25
68109;SHT30;54893;49.864;19.084;2023-04-25T03:22:59;7.94;94.59
68109;SHT30;54893;49.864;19.084;2023-04-25T03:28:00;7.90;94.94
68109;SHT30;54893;49.864;19.084;2023-04-25T03:33:00;7.87;95.32
68109;SHT30;54893;49.864;19.084;2023-04-25T03:38:01;7.83;95.35
68109;SHT30;54893;49.864;19.084;2023-04-25T03:43:01;7.77;95.54
68109;SHT30;54893;49.864;19.084;2023-04-25T03:48:01;7.74;95.54
68109;SHT30;54893;49.864;19.084;2023-04-25T03:53:02;7.64;95.48
68109;SHT30;54893;49.864;19.084;2023-04-25T03:58:02;7.59;95.21
68109;SHT30;54893;49.864;19.084;2023-04-25T04:03:02;7.56;95.26
68109;SHT30;54893;49.864;19.084;2023-04-25T04:08:03;7.61;94.85
68109;SHT30;54893;49.864;19.084;2023-04-25T04:13:03;7.46;95.44
68109;SHT30;54893;49.864;19.084;2023-04-25T04:18:03;7.47;95.30
68109;SHT30;54893;49.864;19.084;2023-04-25T04:23:04;7.43;95.33
68109;SHT30;54893;49.864;19.084;2023-04-25T04:28:06;7.42;95.33
68109;SHT30;54893;49.864;19.084;2023-04-25T04:33:07;7.49;95.13
68109;SHT30;54893;49.864;19.084;2023-04-25T04:38:07;7.53;95.08
68109;SHT30;54893;49.864;19.084;2023-04-25T04:43:07;7.57;94.99
68109;SHT30;54893;49.864;19.084;2023-04-25T04:48:10;7.63;94.94
68109;SHT30;54893;49.864;19.084;2023-04-25T04:53:12;7.71;94.62
68109;SHT30;54893;49.864;19.084;2023-04-25T04:58:12;7.75;94.40
68109;SHT30;54893;49.864;19.084;2023-04-25T05:03:12;7.90;93.37
68109;SHT30;54893;49.864;19.084;2023-04-25T05:08:13;7.77;93.83
68109;SHT30;54893;49.864;19.084;2023-04-25T05:13:13;7.75;94.18
68109;SHT30;54893;49.864;19.084;2023-04-25T05:18:13;7.78;94.23
68109;SHT30;54893;49.864;19.084;2023-04-25T05:23:14;7.83;94.26
68109;SHT30;54893;49.864;19.084;2023-04-25T05:28:14;8.02;94.19
68109;SHT30;54893;49.864;19.084;2023-04-25T05:33:14;8.09;94.13
68109;SHT30;54893;49.864;19.084;2023-04-25T05:38:15;8.35;93.80
68109;SHT30;54893;49.864;19.084;2023-04-25T05:43:15;8.58;93.58
68109;SHT30;54893;49.864;19.084;2023-04-25T05:48:16;8.72;93.34
68109;SHT30;54893;49.864;19.084;2023-04-25T05:53:16;8.83;92.91
68109;SHT30;54893;49.864;19.084;2023-04-25T05:58:16;8.94;92.81
68109;SHT30;54893;49.864;19.084;2023-04-25T06:03:17;9.03;92.28
68109;SHT30;54893;49.864;19.084;2023-04-25T06:08:17;9.03;91.27
68109;SHT30;54893;49.864;19.084;2023-04-25T06:13:17;9.12;89.40
68109;SHT30;54893;49.864;19.084;2023-04-25T06:18:18;9.10;89.38
68109;SHT30;54893;49.864;19.084;2023-04-25T06:23:18;9.09;89.09
68109;SHT30;54893;49.864;19.084;2023-04-25T06:28:18;9.22;88.76
68109;SHT30;54893;49.864;19.084;2023-04-25T06:33:19;9.28;87.65
68109;SHT30;54893;49.864;19.084;2023-04-25T06:38:20;9.33;87.08
68109;SHT30;54893;49.864;19.084;2023-04-25T06:43:20;9.34;85.24
68109;SHT30;54893;49.864;19.084;2023-04-25T06:48:21;9.33;85.38
68109;SHT30;54893;49.864;19.084;2023-04-25T06:53:21;9.24;85.96
68109;SHT30;54893;49.864;19.084;2023-04-25T06:58:21;9.13;85.77
68109;SHT30;54893;49.864;19.084;2023-04-25T07:03:22;9.24;85.72
68109;SHT30;54893;49.864;19.084;2023-04-25T07:08:22;9.43;85.01
68109;SHT30;54893;49.864;19.084;2023-04-25T07:13:23;9.33;84.87
68109;SHT30;54893;49.864;19.084;2023-04-25T07:18:23;9.44;83.65
68109;SHT30;54893;49.864;19.084;2023-04-25T07:23:23;9.68;82.59
68109;SHT30;54893;49.864;19.084;2023-04-25T07:28:24;9.60;82.69
68109;SHT30;54893;49.864;19.084;2023-04-25T07:33:24;9.73;83.11
68109;SHT30;54893;49.864;19.084;2023-04-25T07:38:24;9.90;81.44
68109;SHT30;54893;49.864;19.084;2023-04-25T07:43:25;10.22;82.37
68109;SHT30;54893;49.864;19.084;2023-04-25T07:48:26;10.34;82.33
68109;SHT30;54893;49.864;19.084;2023-04-25T07:53:26;10.66;81.38
68109;SHT30;54893;49.864;19.084;2023-04-25T07:58:26;10.34;79.47
68109;SHT30;54893;49.864;19.084;2023-04-25T08:03:27;11.00;79.41
68109;SHT30;54893;49.864;19.084;2023-04-25T08:08:27;11.31;78.67
68109;SHT30;54893;49.864;19.084;2023-04-25T08:13:27;11.20;77.53
68109;SHT30;54893;49.864;19.084;2023-04-25T08:18:28;11.06;77.19
68109;SHT30;54893;49.864;19.084;2023-04-25T08:23:28;10.88;77.12
68109;SHT30;54893;49.864;19.084;2023-04-25T08:28:28;10.86;77.49
68109;SHT30;54893;49.864;19.084;2023-04-25T08:33:29;10.58;76.55
68109;SHT30;54893;49.864;19.084;2023-04-25T08:38:30;10.59;77.62
68109;SHT30;54893;49.864;19.084;2023-04-25T08:43:30;10.26;77.91
68109;SHT30;54893;49.864;19.084;2023-04-25T08:48:32;10.59;76.85
68109;SHT30;54893;49.864;19.084;2023-04-25T08:53:34;11.20;75.72
68109;SHT30;54893;49.864;19.084;2023-04-25T08:58:35;11.09;74.68
68109;SHT30;54893;49.864;19.084;2023-04-25T09:03:36;11.61;72.64
68109;SHT30;54893;49.864;19.084;2023-04-25T09:08:37;11.22;73.38
68109;SHT30;54893;49.864;19.084;2023-04-25T09:13:37;11.41;73.30
68109;SHT30;54893;49.864;19.084;2023-04-25T09:18:38;11.73;72.82
68109;SHT30;54893;49.864;19.084;2023-04-25T09:23:47;10.97;72.48
68109;SHT30;54893;49.864;19.084;2023-04-25T09:28:47;11.50;72.62
68109;SHT30;54893;49.864;19.084;2023-04-25T09:33:48;11.02;73.08
68109;SHT30;54893;49.864;19.084;2023-04-25T09:38:48;11.13;72.91
68109;SHT30;54893;49.864;19.084;2023-04-25T09:43:49;11.19;72.36
68109;SHT30;54893;49.864;19.084;2023-04-25T09:48:51;11.16;72.16
68109;SHT30;54893;49.864;19.084;2023-04-25T09:53:51;11.27;72.05
68109;SHT30;54893;49.864;19.084;2023-04-25T09:58:53;11.27;72.47
68109;SHT30;54893;49.864;19.084;2023-04-25T10:03:55;11.36;74.26
68109;SHT30;54893;49.864;19.084;2023-04-25T10:08:57;11.75;73.56
68109;SHT30;54893;49.864;19.084;2023-04-25T10:13:57;12.25;71.58
68109;SHT30;54893;49.864;19.084;2023-04-25T10:18:58;12.38;69.91
68109;SHT30;54893;49.864;19.084;2023-04-25T10:23:59;11.88;70.07
68109;SHT30;54893;49.864;19.084;2023-04-25T10:29:02;11.77;70.53
68109;SHT30;54893;49.864;19.084;2023-04-25T10:34:02;11.88;70.04
68109;SHT30;54893;49.864;19.084;2023-04-25T10:39:04;11.73;70.57
68109;SHT30;54893;49.864;19.084;2023-04-25T10:44:08;11.04;69.32
68109;SHT30;54893;49.864;19.084;2023-04-25T10:49:08;11.50;70.34
68109;SHT30;54893;49.864;19.084;2023-04-25T10:54:11;12.04;67.43
68109;SHT30;54893;49.864;19.084;2023-04-25T10:59:14;12.18;67.91
68109;SHT30;54893;49.864;19.084;2023-04-25T11:04:30;11.87;68.00
68109;SHT30;54893;49.864;19.084;2023-04-25T11:09:32;12.10;67.18
68109;SHT30;54893;49.864;19.084;2023-04-25T11:14:33;12.31;67.03
68109;SHT30;54893;49.864;19.084;2023-04-25T11:19:34;12.22;65.40
68109;SHT30;54893;49.864;19.084;2023-04-25T11:24:35;11.91;65.95
68109;SHT30;54893;49.864;19.084;2023-04-25T11:29:36;12.04;64.47
68109;SHT30;54893;49.864;19.084;2023-04-25T11:34:36;11.95;66.12
68109;SHT30;54893;49.864;19.084;2023-04-25T11:39:37;11.84;64.72
68109;SHT30;54893;49.864;19.084;2023-04-25T11:44:39;12.04;64.23
68109;SHT30;54893;49.864;19.084;2023-04-25T11:49:40;11.88;65.44
68109;SHT30;54893;49.864;19.084;2023-04-25T11:54:44;11.87;65.55
68109;SHT30;54893;49.864;19.084;2023-04-25T11:59:44;11.71;64.82
68109;SHT30;54893;49.864;19.084;2023-04-25T12:04:45;11.58;64.45
68109;SHT30;54893;49.864;19.084;2023-04-25T12:09:51;11.68;64.07
68109;SHT30;54893;49.864;19.084;2023-04-25T12:14:52;11.91;62.25
68109;SHT30;54893;49.864;19.084;2023-04-25T12:19:52;11.57;62.11
68109;SHT30;54893;49.864;19.084;2023-04-25T12:24:52;11.34;63.35
68109;SHT30;54893;49.864;19.084;2023-04-25T12:29:56;11.57;61.75
68109;SHT30;54893;49.864;19.084;2023-04-25T12:34:56;11.58;62.75
68109;SHT30;54893;49.864;19.084;2023-04-25T12:39:56;11.47;63.00
68109;SHT30;54893;49.864;19.084;2023-04-25T12:44:57;11.43;63.46
68109;SHT30;54893;49.864;19.084;2023-04-25T12:49:57;11.50;63.94
68109;SHT30;54893;49.864;19.084;2023-04-25T12:54:57;11.58;63.63
68109;SHT30;54893;49.864;19.084;2023-04-25T12:59:58;11.81;63.48
68109;SHT30;54893;49.864;19.084;2023-04-25T13:04:58;11.27;61.63
68109;SHT30;54893;49.864;19.084;2023-04-25T13:09:58;11.51;63.02
68109;SHT30;54893;49.864;19.084;2023-04-25T13:14:59;11.38;62.77
68109;SHT30;54893;49.864;19.084;2023-04-25T13:19:59;11.28;64.20
68109;SHT30;54893;49.864;19.084;2023-04-25T13:24:59;11.63;63.25
68109;SHT30;54893;49.864;19.084;2023-04-25T13:30:00;11.54;63.56
68109;SHT30;54893;49.864;19.084;2023-04-25T13:35:06;11.74;62.61
68109;SHT30;54893;49.864;19.084;2023-04-25T13:40:09;11.80;62.07
68109;SHT30;54893;49.864;19.084;2023-04-25T13:45:10;12.10;62.02
68109;SHT30;54893;49.864;19.084;2023-04-25T13:50:10;12.41;61.86
68109;SHT30;54893;49.864;19.084;2023-04-25T13:55:10;13.07;60.26
68109;SHT30;54893;49.864;19.084;2023-04-25T14:00:12;13.03;59.26
68109;SHT30;54893;49.864;19.084;2023-04-25T14:05:13;13.91;59.55
68109;SHT30;54893;49.864;19.084;2023-04-25T14:10:13;13.70;57.83
68109;SHT30;54893;49.864;19.084;2023-04-25T14:15:13;13.58;58.09
68109;SHT30;54893;49.864;19.084;2023-04-25T14:20:14;15.13;56.88
68109;SHT30;54893;49.864;19.084;2023-04-25T14:25:15;16.95;53.30
68109;SHT30;54893;49.864;19.084;2023-04-25T14:30:17;14.73;54.85
68109;SHT30;54893;49.864;19.084;2023-04-25T14:35:18;13.98;56.37
68109;SHT30;54893;49.864;19.084;2023-04-25T14:40:18;14.04;56.91
68109;SHT30;54893;49.864;19.084;2023-04-25T14:45:22;14.77;54.98
68109;SHT30;54893;49.864;19.084;2023-04-25T14:50:23;13.89;57.00
68109;SHT30;54893;49.864;19.084;2023-04-25T14:55:23;13.39;58.43
68109;SHT30;54893;49.864;19.084;2023-04-25T15:00:24;13.06;59.93
68109;SHT30;54893;49.864;19.084;2023-04-25T15:05:25;13.19;59.60
68109;SHT30;54893;49.864;19.084;2023-04-25T15:10:26;12.69;61.02
68109;SHT30;54893;49.864;19.084;2023-04-25T15:15:26;12.39;60.90
68109;SHT30;54893;49.864;19.084;2023-04-25T15:20:26;11.98;61.46
68109;SHT30;54893;49.864;19.084;2023-04-25T15:25:27;12.04;61.85
68109;SHT30;54893;49.864;19.084;2023-04-25T15:30:28;11.85;63.00
68109;SHT30;54893;49.864;19.084;2023-04-25T15:35:28;12.15;62.72
68109;SHT30;54893;49.864;19.084;2023-04-25T15:40:29;11.85;63.04
68109;SHT30;54893;49.864;19.084;2023-04-25T15:45:30;12.15;63.01
68109;SHT30;54893;49.864;19.084;2023-04-25T15:50:33;11.75;64.12
68109;SHT30;54893;49.864;19.084;2023-04-25T15:55:35;11.88;64.53
68109;SHT30;54893;49.864;19.084;2023-04-25T16:00:36;11.88;64.16
68109;SHT30;54893;49.864;19.084;2023-04-25T16:05:37;11.58;64.67
68109;SHT30;54893;49.864;19.084;2023-04-25T16:10:37;11.44;65.34
68109;SHT30;54893;49.864;19.084;2023-04-25T16:15:37;11.56;64.88
68109;SHT30;54893;49.864;19.084;2023-04-25T16:20:39;11.50;65.11
68109;SHT30;54893;49.864;19.084;2023-04-25T16:25:39;11.06;66.34
68109;SHT30;54893;49.864;19.084;2023-04-25T16:30:40;11.03;66.58
68109;SHT30;54893;49.864;19.084;2023-04-25T16:35:40;11.10;66.74
68109;SHT30;54893;49.864;19.084;2023-04-25T16:40:41;10.97;68.32
68109;SHT30;54893;49.864;19.084;2023-04-25T16:45:41;10.45;69.63
68109;SHT30;54893;49.864;19.084;2023-04-25T16:50:41;10.39;70.42
68109;SHT30;54893;49.864;19.084;2023-04-25T16:55:42;10.18;70.59
68109;SHT30;54893;49.864;19.084;2023-04-25T17:00:43;10.19;70.43
68109;SHT30;54893;49.864;19.084;2023-04-25T17:05:43;10.21;70.96
68109;SHT30;54893;49.864;19.084;2023-04-25T17:10:43;10.12;71.54
68109;SHT30;54893;49.864;19.084;2023-04-25T17:15:44;10.21;71.56
68109;SHT30;54893;49.864;19.084;2023-04-25T17:20:44;10.14;72.31
68109;SHT30;54893;49.864;19.084;2023-04-25T17:25:45;10.01;72.41
68109;SHT30;54893;49.864;19.084;2023-04-25T17:30:45;9.95;72.90
68109;SHT30;54893;49.864;19.084;2023-04-25T17:35:46;10.01;72.56
68109;SHT30;54893;49.864;19.084;2023-04-25T17:40:46;9.92;73.55
68109;SHT30;54893;49.864;19.084;2023-04-25T17:45:47;9.90;73.16
68109;SHT30;54893;49.864;19.084;2023-04-25T17:50:48;9.99;72.45
68109;SHT30;54893;49.864;19.084;2023-04-25T17:55:49;9.95;72.57
68109;SHT30;54893;49.864;19.084;2023-04-25T18:00:49;9.97;72.25
68109;SHT30;54893;49.864;19.084;2023-04-25T18:05:50;9.77;73.30
68109;SHT30;54893;49.864;19.084;2023-04-25T18:10:51;9.84;72.26
68109;SHT30;54893;49.864;19.084;2023-04-25T18:15:51;9.70;72.67
68109;SHT30;54893;49.864;19.084;2023-04-25T18:20:52;9.71;72.40
68109;SHT30;54893;49.864;19.084;2023-04-25T18:25:52;9.47;73.89
68109;SHT30;54893;49.864;19.084;2023-04-25T18:30:53;9.44;74.02
68109;SHT30;54893;49.864;19.084;2023-04-25T18:35:53;9.58;73.99
68109;SHT30;54893;49.864;19.084;2023-04-25T18:40:54;9.50;74.78
68109;SHT30;54893;49.864;19.084;2023-04-25T18:45:54;9.34;75.80
68109;SHT30;54893;49.864;19.084;2023-04-25T18:50:54;9.44;76.43
68109;SHT30;54893;49.864;19.084;2023-04-25T18:55:55;9.50;73.36
68109;SHT30;54893;49.864;19.084;2023-04-25T19:00:55;9.40;73.55
68109;SHT30;54893;49.864;19.084;2023-04-25T19:05:56;9.51;72.39
68109;SHT30;54893;49.864;19.084;2023-04-25T19:10:56;9.50;71.78
68109;SHT30;54893;49.864;19.084;2023-04-25T19:15:57;9.57;70.86
68109;SHT30;54893;49.864;19.084;2023-04-25T19:20:57;9.54;69.73
68109;SHT30;54893;49.864;19.084;2023-04-25T19:25:58;9.47;70.11
68109;SHT30;54893;49.864;19.084;2023-04-25T19:30:59;9.33;70.85
68109;SHT30;54893;49.864;19.084;2023-04-25T19:35:59;9.38;70.23
68109;SHT30;54893;49.864;19.084;2023-04-25T19:41:00;9.40;70.22
68109;SHT30;54893;49.864;19.084;2023-04-25T19:46:00;9.27;70.52
68109;SHT30;54893;49.864;19.084;2023-04-25T19:51:00;9.23;70.57
68109;SHT30;54893;49.864;19.084;2023-04-25T19:56:01;9.02;71.46
68109;SHT30;54893;49.864;19.084;2023-04-25T20:01:01;8.99;72.16
68109;SHT30;54893;49.864;19.084;2023-04-25T20:06:03;9.07;71.46
68109;SHT30;54893;49.864;19.084;2023-04-25T20:11:04;9.07;71.58
68109;SHT30;54893;49.864;19.084;2023-04-25T20:16:04;8.96;71.75
68109;SHT30;54893;49.864;19.084;2023-04-25T20:21:05;9.19;71.19
68109;SHT30;54893;49.864;19.084;2023-04-25T20:26:06;9.02;71.81
68109;SHT30;54893;49.864;19.084;2023-04-25T20:31:08;8.87;72.70
68109;SHT30;54893;49.864;19.084;2023-04-25T20:36:09;8.94;72.56
68109;SHT30;54893;49.864;19.084;2023-04-25T20:41:10;8.77;73.37
68109;SHT30;54893;49.864;19.084;2023-04-25T20:46:13;8.87;73.26
68109;SHT30;54893;49.864;19.084;2023-04-25T20:51:13;8.69;74.14
68109;SHT30;54893;49.864;19.084;2023-04-25T20:56:14;8.62;74.42
68109;SHT30;54893;49.864;19.084;2023-04-25T21:01:15;8.80;74.22
68109;SHT30;54893;49.864;19.084;2023-04-25T21:06:16;8.62;74.62
68109;SHT30;54893;49.864;19.084;2023-04-25T21:11:17;8.55;75.24
68109;SHT30;54893;49.864;19.084;2023-04-25T21:16:18;8.53;75.71
68109;SHT30;54893;49.864;19.084;2023-04-25T21:21:18;8.42;76.00
68109;SHT30;54893;49.864;19.084;2023-04-25T21:26:19;8.59;75.92
68109;SHT30;54893;49.864;19.084;2023-04-25T21:31:21;8.28;76.78
68109;SHT30;54893;49.864;19.084;2023-04-25T21:36:21;8.28;76.97
68109;SHT30;54893;49.864;19.084;2023-04-25T21:41:21;8.11;77.94
68109;SHT30;54893;49.864;19.084;2023-04-25T21:46:22;8.06;77.71
68109;SHT30;54893;49.864;19.084;2023-04-25T21:51:24;8.15;77.67
68109;SHT30;54893;49.864;19.084;2023-04-25T21:56:24;8.31;77.06
68109;SHT30;54893;49.864;19.084;2023-04-25T22:01:25;8.05;77.87
68109;SHT30;54893;49.864;19.084;2023-04-25T22:06:26;8.01;78.52
68109;SHT30;54893;49.864;19.084;2023-04-25T22:11:27;7.91;78.71
68109;SHT30;54893;49.864;19.084;2023-04-25T22:16:28;7.98;78.08
68109;SHT30;54893;49.864;19.084;2023-04-25T22:21:28;7.99;78.30
68109;SHT30;54893;49.864;19.084;2023-04-25T22:26:29;7.95;76.73
68109;SHT30;54893;49.864;19.084;2023-04-25T22:31:29;8.02;76.02
68109;SHT30;54893;49.864;19.084;2023-04-25T22:36:30;7.94;75.29
68109;SHT30;54893;49.864;19.084;2023-04-25T22:41:30;7.37;76.78
68109;SHT30;54893;49.864;19.084;2023-04-25T22:46:31;6.88;80.87
68109;SHT30;54893;49.864;19.084;2023-04-25T22:51:31;6.49;82.25
68109;SHT30;54893;49.864;19.084;2023-04-25T22:56:32;6.11;84.46
68109;SHT30;54893;49.864;19.084;2023-04-25T23:01:32;6.03;84.43
68109;SHT30;54893;49.864;19.084;2023-04-25T23:06:33;6.07;85.51
68109;SHT30;54893;49.864;19.084;2023-04-25T23:11:33;6.07;84.64
68109;SHT30;54893;49.864;19.084;2023-04-25T23:16:34;6.11;84.95
68109;SHT30;54893;49.864;19.084;2023-04-25T23:21:35;6.17;86.00
68109;SHT30;54893;49.864;19.084;2023-04-25T23:26:35;6.22;85.93
68109;SHT30;54893;49.864;19.084;2023-04-25T23:31:35;6.18;86.30
68109;SHT30;54893;49.864;19.084;2023-04-25T23:36:36;6.24;86.11
68109;SHT30;54893;49.864;19.084;2023-04-25T23:41:36;6.32;87.37
68109;SHT30;54893;49.864;19.084;2023-04-25T23:46:37;6.32;86.49
68109;SHT30;54893;49.864;19.084;2023-04-25T23:51:37;6.42;87.24
68109;SHT30;54893;49.864;19.084;2023-04-25T23:56:37;6.39;86.88
